sensor_id;sensor_type;location;lat;lon;timestamp;temperature;humidity
3868;DHT22;1949;48.152;11.528;2022-07-12T00:00:45;24.10;41.50
3868;DHT22;1949;48.152;11.528;2022-07-12T00:03:10;24.10;41.60
3868;DHT22;1949;48.152;11.528;2022-07-12T00:05:39;24.10;41.60
3868;DHT22;1949;48.152;11.528;2022-07-12T00:08:05;24.00;41.60
3868;DHT22;1949;48.152;11.528;2022-07-12T00:10:32;24.00;41.60
3868;DHT22;1949;48.152;11.528;2022-07-12T00:12:58;24.00;41.70
3868;DHT22;1949;48.152;11.528;2022-07-12T00:15:27;24.00;41.60
3868;DHT22;1949;48.152;11.528;2022-07-12T00:17:53;24.00;41.80
3868;DHT22;1949;48.152;11.528;2022-07-12T00:20:18;24.00;41.80
3868;DHT22;1949;48.152;11.528;2022-07-12T00:22:44;24.00;41.80
3868;DHT22;1949;48.152;11.528;2022-07-12T00:25:12;24.00;41.80
3868;DHT22;1949;48.152;11.528;2022-07-12T00:27:38;24.00;41.80
3868;DHT22;1949;48.152;11.528;2022-07-12T00:30:07;24.00;41.80
3868;DHT22;1949;48.152;11.528;2022-07-12T00:32:34;24.00;41.90
3868;DHT22;1949;48.152;11.528;2022-07-12T00:35:01;24.00;41.90
3868;DHT22;1949;48.152;11.528;2022-07-12T00:37:30;24.00;42.00
3868;DHT22;1949;48.152;11.528;2022-07-12T00:39:56;24.00;42.00
3868;DHT22;1949;48.152;11.528;2022-07-12T00:42:26;24.00;42.00
3868;DHT22;1949;48.152;11.528;2022-07-12T00:44:53;24.00;42.10
3868;DHT22;1949;48.152;11.528;2022-07-12T00:47:32;23.90;42.00
3868;DHT22;1949;48.152;11.528;2022-07-12T00:49:59;24.00;42.10
3868;DHT22;1949;48.152;11.528;2022-07-12T00:52:26;23.90;42.00
3868;DHT22;1949;48.152;11.528;2022-07-12T00:54:53;23.90;42.00
3868;DHT22;1949;48.152;11.528;2022-07-12T00:57:25;23.90;42.10
3868;DHT22;1949;48.152;11.528;2022-07-12T00:59:51;23.90;42.10
3868;DHT22;1949;48.152;11.528;2022-07-12T01:02:18;23.90;42.10
3868;DHT22;1949;48.152;11.528;2022-07-12T01:04:45;23.80;42.20
3868;DHT22;1949;48.152;11.528;2022-07-12T01:07:11;23.80;42.20
3868;DHT22;1949;48.152;11.528;2022-07-12T01:09:39;23.80;42.30
3868;DHT22;1949;48.152;11.528;2022-07-12T01:12:05;23.80;42.30
3868;DHT22;1949;48.152;11.528;2022-07-12T01:14:34;23.80;42.30
3868;DHT22;1949;48.152;11.528;2022-07-12T01:17:03;23.80;42.40
3868;DHT22;1949;48.152;11.528;2022-07-12T01:19:31;23.70;42.30
3868;DHT22;1949;48.152;11.528;2022-07-12T01:21:59;23.70;42.40
3868;DHT22;1949;48.152;11.528;2022-07-12T01:24:26;23.70;42.50
3868;DHT22;1949;48.152;11.528;2022-07-12T01:26:52;23.70;42.50
3868;DHT22;1949;48.152;11.528;2022-07-12T01:29:20;23.70;42.50
3868;DHT22;1949;48.152;11.528;2022-07-12T01:31:47;23.70;42.60
3868;DHT22;1949;48.152;11.528;2022-07-12T01:34:13;23.70;42.60
3868;DHT22;1949;48.152;11.528;2022-07-12T01:36:41;23.60;42.50
3868;DHT22;1949;48.152;11.528;2022-07-12T01:39:09;23.60;43.20
3868;DHT22;1949;48.152;11.528;2022-07-12T01:41:36;23.60;42.70
3868;DHT22;1949;48.152;11.528;2022-07-12T01:44:02;23.60;42.70
3868;DHT22;1949;48.152;11.528;2022-07-12T01:46:28;23.60;42.70
3868;DHT22;1949;48.152;11.528;2022-07-12T01:48:53;23.60;42.80
3868;DHT22;1949;48.152;11.528;2022-07-12T01:51:19;23.60;42.80
3868;DHT22;1949;48.152;11.528;2022-07-12T01:53:45;23.60;42.80
3868;DHT22;1949;48.152;11.528;2022-07-12T01:56:12;23.60;43.30
3868;DHT22;1949;48.152;11.528;2022-07-12T01:58:38;23.60;42.80
3868;DHT22;1949;48.152;11.528;2022-07-12T02:01:04;23.60;42.90
3868;DHT22;1949;48.152;11.528;2022-07-12T02:03:34;23.60;42.90
3868;DHT22;1949;48.152;11.528;2022-07-12T02:06:00;23.60;42.90
3868;DHT22;1949;48.152;11.528;2022-07-12T02:08:26;23.60;42.90
3868;DHT22;1949;48.152;11.528;2022-07-12T02:10:52;23.50;42.90
3868;DHT22;1949;48.152;11.528;2022-07-12T02:13:18;23.50;42.90
3868;DHT22;1949;48.152;11.528;2022-07-12T02:15:45;23.50;42.90
3868;DHT22;1949;48.152;11.528;2022-07-12T02:18:10;23.50;43.00
3868;DHT22;1949;48.152;11.528;2022-07-12T02:20:36;23.50;43.10
3868;DHT22;1949;48.152;11.528;2022-07-12T02:23:04;23.50;43.10
3868;DHT22;1949;48.152;11.528;2022-07-12T02:25:29;23.50;43.10
3868;DHT22;1949;48.152;11.528;2022-07-12T02:27:57;23.50;43.20
3868;DHT22;1949;48.152;11.528;2022-07-12T02:30:23;23.50;43.20
3868;DHT22;1949;48.152;11.528;2022-07-12T02:32:49;23.50;43.20
3868;DHT22;1949;48.152;11.528;2022-07-12T02:35:21;23.40;43.10
3868;DHT22;1949;48.152;11.528;2022-07-12T02:37:47;23.40;43.10
3868;DHT22;1949;48.152;11.528;2022-07-12T02:40:14;23.40;43.10
3868;DHT22;1949;48.152;11.528;2022-07-12T02:42:58;23.40;43.10
3868;DHT22;1949;48.152;11.528;2022-07-12T02:45:24;23.40;43.10
3868;DHT22;1949;48.152;11.528;2022-07-12T02:47:49;23.40;43.20
3868;DHT22;1949;48.152;11.528;2022-07-12T02:50:16;23.30;43.20
3868;DHT22;1949;48.152;11.528;2022-07-12T02:52:42;23.30;43.20
3868;DHT22;1949;48.152;11.528;2022-07-12T02:55:08;23.30;43.30
3868;DHT22;1949;48.152;11.528;2022-07-12T02:57:33;23.30;43.30
3868;DHT22;1949;48.152;11.528;2022-07-12T02:59:59;23.20;43.30
3868;DHT22;1949;48.152;11.528;2022-07-12T03:02:27;23.20;43.30
3868;DHT22;1949;48.152;11.528;2022-07-12T03:04:52;23.20;43.40
3868;DHT22;1949;48.152;11.528;2022-07-12T03:07:19;23.10;43.30
3868;DHT22;1949;48.152;11.528;2022-07-12T03:09:45;23.10;43.40
3868;DHT22;1949;48.152;11.528;2022-07-12T03:12:10;23.10;43.40
3868;DHT22;1949;48.152;11.528;2022-07-12T03:14:39;23.10;43.40
3868;DHT22;1949;48.152;11.528;2022-07-12T03:17:04;23.20;43.50
3868;DHT22;1949;48.152;11.528;2022-07-12T03:19:32;23.10;43.40
3868;DHT22;1949;48.152;11.528;2022-07-12T03:21:58;23.10;43.40
3868;DHT22;1949;48.152;11.528;2022-07-12T03:24:23;23.10;43.40
3868;DHT22;1949;48.152;11.528;2022-07-12T03:26:49;23.10;43.40
3868;DHT22;1949;48.152;11.528;2022-07-12T03:29:17;23.00;43.40
3868;DHT22;1949;48.152;11.528;2022-07-12T03:31:44;23.00;43.50
3868;DHT22;1949;48.152;11.528;2022-07-12T03:34:10;23.00;43.60
3868;DHT22;1949;48.152;11.528;2022-07-12T03:36:35;23.00;43.60
3868;DHT22;1949;48.152;11.528;2022-07-12T03:39:01;23.00;43.60
3868;DHT22;1949;48.152;11.528;2022-07-12T03:41:28;23.00;43.60
3868;DHT22;1949;48.152;11.528;2022-07-12T03:43:54;23.00;43.60
3868;DHT22;1949;48.152;11.528;2022-07-12T03:46:24;23.00;43.60
3868;DHT22;1949;48.152;11.528;2022-07-12T03:48:49;23.00;43.60
3868;DHT22;1949;48.152;11.528;2022-07-12T03:51:15;23.00;43.60
3868;DHT22;1949;48.152;11.528;2022-07-12T03:53:40;22.90;43.60
3868;DHT22;1949;48.152;11.528;2022-07-12T03:56:07;23.00;43.70
3868;DHT22;1949;48.152;11.528;2022-07-12T03:58:36;22.90;43.90
3868;DHT22;1949;48.152;11.528;2022-07-12T04:01:02;23.00;43.80
3868;DHT22;1949;48.152;11.528;2022-07-12T04:03:28;22.90;43.70
3868;DHT22;1949;48.152;11.528;2022-07-12T04:05:53;23.00;43.80
3868;DHT22;1949;48.152;11.528;2022-07-12T04:08:19;22.90;43.70
3868;DHT22;1949;48.152;11.528;2022-07-12T04:10:45;22.90;43.70
3868;DHT22;1949;48.152;11.528;2022-07-12T04:13:11;22.90;43.70
3868;DHT22;1949;48.152;11.528;2022-07-12T04:15:38;22.90;43.70
3868;DHT22;1949;48.152;11.528;2022-07-12T04:18:05;22.90;43.70
3868;DHT22;1949;48.152;11.528;2022-07-12T04:20:32;22.90;43.70
3868;DHT22;1949;48.152;11.528;2022-07-12T04:22:57;22.90;43.70
3868;DHT22;1949;48.152;11.528;2022-07-12T04:25:24;22.80;43.70
3868;DHT22;1949;48.152;11.528;2022-07-12T04:27:50;22.80;43.90
3868;DHT22;1949;48.152;11.528;2022-07-12T04:30:16;22.80;43.90
3868;DHT22;1949;48.152;11.528;2022-07-12T04:32:43;22.80;43.90
3868;DHT22;1949;48.152;11.528;2022-07-12T04:35:08;22.70;43.90
3868;DHT22;1949;48.152;11.528;2022-07-12T04:37:35;22.70;44.00
3868;DHT22;1949;48.152;11.528;2022-07-12T04:40:01;22.70;44.10
3868;DHT22;1949;48.152;11.528;2022-07-12T04:42:27;22.70;44.10
3868;DHT22;1949;48.152;11.528;2022-07-12T04:44:53;22.70;44.00
3868;DHT22;1949;48.152;11.528;2022-07-12T04:47:20;22.70;44.10
3868;DHT22;1949;48.152;11.528;2022-07-12T04:49:51;22.70;44.10
3868;DHT22;1949;48.152;11.528;2022-07-12T04:52:16;22.70;44.10
3868;DHT22;1949;48.152;11.528;2022-07-12T04:54:42;22.70;44.20
3868;DHT22;1949;48.152;11.528;2022-07-12T04:57:08;22.70;44.20
3868;DHT22;1949;48.152;11.528;2022-07-12T04:59:34;22.70;44.20
3868;DHT22;1949;48.152;11.528;2022-07-12T05:02:04;22.70;44.10
3868;DHT22;1949;48.152;11.528;2022-07-12T05:04:35;22.70;44.30
3868;DHT22;1949;48.152;11.528;2022-07-12T05:07:01;22.70;44.20
3868;DHT22;1949;48.152;11.528;2022-07-12T05:09:27;22.70;44.20
3868;DHT22;1949;48.152;11.528;2022-07-12T05:11:57;22.70;44.20
3868;DHT22;1949;48.152;11.528;2022-07-12T05:14:23;22.70;44.20
3868;DHT22;1949;48.152;11.528;2022-07-12T05:16:49;22.70;44.20
3868;DHT22;1949;48.152;11.528;2022-07-12T05:19:15;22.70;44.40
3868;DHT22;1949;48.152;11.528;2022-07-12T05:21:41;22.70;44.40
3868;DHT22;1949;48.152;11.528;2022-07-12T05:24:07;22.80;44.40
3868;DHT22;1949;48.152;11.528;2022-07-12T05:26:34;22.80;44.40
3868;DHT22;1949;48.152;11.528;2022-07-12T05:29:01;22.80;44.40
3868;DHT22;1949;48.152;11.528;2022-07-12T05:31:28;22.80;44.40
3868;DHT22;1949;48.152;11.528;2022-07-12T05:33:54;22.80;45.00
3868;DHT22;1949;48.152;11.528;2022-07-12T05:36:20;22.80;44.50
3868;DHT22;1949;48.152;11.528;2022-07-12T05:38:45;22.80;44.70
3868;DHT22;1949;48.152;11.528;2022-07-12T05:41:13;22.90;44.40
3868;DHT22;1949;48.152;11.528;2022-07-12T05:43:39;22.90;44.40
3868;DHT22;1949;48.152;11.528;2022-07-12T05:46:05;22.90;44.40
3868;DHT22;1949;48.152;11.528;2022-07-12T05:48:33;22.90;44.40
3868;DHT22;1949;48.152;11.528;2022-07-12T05:51:00;22.90;44.50
3868;DHT22;1949;48.152;11.528;2022-07-12T05:53:45;22.90;44.60
3868;DHT22;1949;48.152;11.528;2022-07-12T05:56:12;22.90;44.60
3868;DHT22;1949;48.152;11.528;2022-07-12T05:58:42;22.90;44.50
3868;DHT22;1949;48.152;11.528;2022-07-12T06:01:08;22.90;44.60
3868;DHT22;1949;48.152;11.528;2022-07-12T06:03:34;22.90;44.50
3868;DHT22;1949;48.152;11.528;2022-07-12T06:06:00;22.90;44.50
3868;DHT22;1949;48.152;11.528;2022-07-12T06:08:26;22.90;44.50
3868;DHT22;1949;48.152;11.528;2022-07-12T06:10:51;22.90;44.50
3868;DHT22;1949;48.152;11.528;2022-07-12T06:13:18;22.90;44.40
3868;DHT22;1949;48.152;11.528;2022-07-12T06:15:51;23.00;44.50
3868;DHT22;1949;48.152;11.528;2022-07-12T06:18:17;23.00;44.60
3868;DHT22;1949;48.152;11.528;2022-07-12T06:20:43;23.00;44.60
3868;DHT22;1949;48.152;11.528;2022-07-12T06:23:08;23.00;44.50
3868;DHT22;1949;48.152;11.528;2022-07-12T06:25:35;23.00;44.50
3868;DHT22;1949;48.152;11.528;2022-07-12T06:28:02;23.00;44.40
3868;DHT22;1949;48.152;11.528;2022-07-12T06:30:29;23.10;44.40
3868;DHT22;1949;48.152;11.528;2022-07-12T06:32:55;23.10;44.30
3868;DHT22;1949;48.152;11.528;2022-07-12T06:35:21;23.10;44.30
3868;DHT22;1949;48.152;11.528;2022-07-12T06:37:47;23.10;44.50
3868;DHT22;1949;48.152;11.528;2022-07-12T06:40:13;23.10;44.40
3868;DHT22;1949;48.152;11.528;2022-07-12T06:42:42;23.20;44.40
3868;DHT22;1949;48.152;11.528;2022-07-12T06:45:10;23.20;44.20
3868;DHT22;1949;48.152;11.528;2022-07-12T06:47:36;23.20;44.10
3868;DHT22;1949;48.152;11.528;2022-07-12T06:50:03;23.20;44.10
3868;DHT22;1949;48.152;11.528;2022-07-12T06:52:29;23.20;44.20
3868;DHT22;1949;48.152;11.528;2022-07-12T06:54:56;23.20;44.10
3868;DHT22;1949;48.152;11.528;2022-07-12T06:57:23;23.20;44.10
3868;DHT22;1949;48.152;11.528;2022-07-12T06:59:50;23.20;44.20
3868;DHT22;1949;48.152;11.528;2022-07-12T07:02:22;23.20;44.10
3868;DHT22;1949;48.152;11.528;2022-07-12T07:04:49;23.30;44.20
3868;DHT22;1949;48.152;11.528;2022-07-12T07:07:15;23.30;44.10
3868;DHT22;1949;48.152;11.528;2022-07-12T07:09:45;23.40;44.10
3868;DHT22;1949;48.152;11.528;2022-07-12T07:12:11;23.40;44.00
3868;DHT22;1949;48.152;11.528;2022-07-12T07:14:38;23.40;44.10
3868;DHT22;1949;48.152;11.528;2022-07-12T07:17:04;23.40;44.00
3868;DHT22;1949;48.152;11.528;2022-07-12T07:19:33;23.40;44.00
3868;DHT22;1949;48.152;11.528;2022-07-12T07:21:59;23.40;43.90
3868;DHT22;1949;48.152;11.528;2022-07-12T07:24:25;23.40;43.90
3868;DHT22;1949;48.152;11.528;2022-07-12T07:26:52;23.50;43.90
3868;DHT22;1949;48.152;11.528;2022-07-12T07:29:23;23.40;43.80
3868;DHT22;1949;48.152;11.528;2022-07-12T07:32:13;23.40;43.90
3868;DHT22;1949;48.152;11.528;2022-07-12T07:34:40;23.40;44.00
3868;DHT22;1949;48.152;11.528;2022-07-12T07:37:07;23.40;44.00
3868;DHT22;1949;48.152;11.528;2022-07-12T07:39:34;23.40;44.00
3868;DHT22;1949;48.152;11.528;2022-07-12T07:41:59;23.40;44.00
3868;DHT22;1949;48.152;11.528;2022-07-12T07:44:25;23.50;44.10
3868;DHT22;1949;48.152;11.528;2022-07-12T07:46:52;23.50;43.90
3868;DHT22;1949;48.152;11.528;2022-07-12T07:49:21;23.50;43.80
3868;DHT22;1949;48.152;11.528;2022-07-12T07:51:49;23.50;43.90
3868;DHT22;1949;48.152;11.528;2022-07-12T07:54:15;23.60;43.90
3868;DHT22;1949;48.152;11.528;2022-07-12T07:56:41;23.60;43.70
3868;DHT22;1949;48.152;11.528;2022-07-12T07:59:07;23.60;43.70
3868;DHT22;1949;48.152;11.528;2022-07-12T08:01:35;23.60;43.60
3868;DHT22;1949;48.152;11.528;2022-07-12T08:04:21;23.60;43.50
3868;DHT22;1949;48.152;11.528;2022-07-12T08:06:49;23.70;43.60
3868;DHT22;1949;48.152;11.528;2022-07-12T08:09:15;23.70;44.00
3868;DHT22;1949;48.152;11.528;2022-07-12T08:11:50;23.70;43.40
3868;DHT22;1949;48.152;11.528;2022-07-12T08:14:16;23.70;43.40
3868;DHT22;1949;48.152;11.528;2022-07-12T08:16:43;23.70;43.40
3868;DHT22;1949;48.152;11.528;2022-07-12T08:19:09;23.70;43.40
3868;DHT22;1949;48.152;11.528;2022-07-12T08:21:37;23.70;43.50
3868;DHT22;1949;48.152;11.528;2022-07-12T08:24:02;23.70;43.60
3868;DHT22;1949;48.152;11.528;2022-07-12T08:26:28;23.70;43.60
3868;DHT22;1949;48.152;11.528;2022-07-12T08:28:54;23.60;43.40
3868;DHT22;1949;48.152;11.528;2022-07-12T08:31:21;23.70;43.40
3868;DHT22;1949;48.152;11.528;2022-07-12T08:33:46;23.70;43.40
3868;DHT22;1949;48.152;11.528;2022-07-12T08:36:12;23.70;43.40
3868;DHT22;1949;48.152;11.528;2022-07-12T08:38:44;23.70;43.40
3868;DHT22;1949;48.152;11.528;2022-07-12T08:41:14;23.70;43.90
3868;DHT22;1949;48.152;11.528;2022-07-12T08:43:40;23.80;43.30
3868;DHT22;1949;48.152;11.528;2022-07-12T08:46:09;23.80;43.30
3868;DHT22;1949;48.152;11.528;2022-07-12T08:48:36;23.80;43.10
3868;DHT22;1949;48.152;11.528;2022-07-12T08:51:04;23.90;43.00
3868;DHT22;1949;48.152;11.528;2022-07-12T08:53:32;23.80;42.80
3868;DHT22;1949;48.152;11.528;2022-07-12T08:55:58;23.80;42.70
3868;DHT22;1949;48.152;11.528;2022-07-12T08:58:26;23.80;42.80
3868;DHT22;1949;48.152;11.528;2022-07-12T09:00:53;23.80;42.80
3868;DHT22;1949;48.152;11.528;2022-07-12T09:03:37;23.80;42.80
3868;DHT22;1949;48.152;11.528;2022-07-12T09:06:05;23.80;42.70
3868;DHT22;1949;48.152;11.528;2022-07-12T09:08:32;23.80;42.60
3868;DHT22;1949;48.152;11.528;2022-07-12T09:11:01;23.80;42.60
3868;DHT22;1949;48.152;11.528;2022-07-12T09:13:53;23.90;42.60
3868;DHT22;1949;48.152;11.528;2022-07-12T09:16:21;23.90;42.70
3868;DHT22;1949;48.152;11.528;2022-07-12T09:18:51;23.90;42.60
3868;DHT22;1949;48.152;11.528;2022-07-12T09:21:28;24.00;42.70
3868;DHT22;1949;48.152;11.528;2022-07-12T09:23:59;23.90;42.60
3868;DHT22;1949;48.152;11.528;2022-07-12T09:26:32;24.00;42.30
3868;DHT22;1949;48.152;11.528;2022-07-12T09:29:09;24.00;42.10
3868;DHT22;1949;48.152;11.528;2022-07-12T09:31:48;23.90;41.90
3868;DHT22;1949;48.152;11.528;2022-07-12T09:34:33;23.90;42.10
3868;DHT22;1949;48.152;11.528;2022-07-12T09:37:17;23.90;42.20
3868;DHT22;1949;48.152;11.528;2022-07-12T09:39:44;23.90;42.00
3868;DHT22;1949;48.152;11.528;2022-07-12T09:42:10;23.90;42.00
3868;DHT22;1949;48.152;11.528;2022-07-12T09:44:38;23.90;42.10
3868;DHT22;1949;48.152;11.528;2022-07-12T09:47:06;24.00;42.20
3868;DHT22;1949;48.152;11.528;2022-07-12T09:49:33;24.00;42.10
3868;DHT22;1949;48.152;11.528;2022-07-12T09:52:02;24.00;42.10
3868;DHT22;1949;48.152;11.528;2022-07-12T09:54:28;24.00;42.00
3868;DHT22;1949;48.152;11.528;2022-07-12T09:56:59;24.10;42.30
3868;DHT22;1949;48.152;11.528;2022-07-12T09:59:29;24.10;42.20
3868;DHT22;1949;48.152;11.528;2022-07-12T10:01:56;24.20;42.10
3868;DHT22;1949;48.152;11.528;2022-07-12T10:04:29;24.20;42.30
3868;DHT22;1949;48.152;11.528;2022-07-12T10:06:56;24.20;42.00
3868;DHT22;1949;48.152;11.528;2022-07-12T10:09:21;24.20;41.80
3868;DHT22;1949;48.152;11.528;2022-07-12T10:11:49;24.20;41.80
3868;DHT22;1949;48.152;11.528;2022-07-12T10:14:16;24.20;41.80
3868;DHT22;1949;48.152;11.528;2022-07-12T10:16:42;24.30;41.90
3868;DHT22;1949;48.152;11.528;2022-07-12T10:19:25;24.30;41.90
3868;DHT22;1949;48.152;11.528;2022-07-12T10:21:54;24.30;42.00
3868;DHT22;1949;48.152;11.528;2022-07-12T10:29:45;24.30;42.00
3868;DHT22;1949;48.152;11.528;2022-07-12T10:32:33;24.30;42.10
3868;DHT22;1949;48.152;11.528;2022-07-12T10:35:02;24.30;42.20
3868;DHT22;1949;48.152;11.528;2022-07-12T10:37:29;24.40;41.80
3868;DHT22;1949;48.152;11.528;2022-07-12T10:42:36;24.30;41.60
3868;DHT22;1949;48.152;11.528;2022-07-12T10:45:14;24.30;41.40
3868;DHT22;1949;48.152;11.528;2022-07-12T10:48:02;24.30;41.30
3868;DHT22;1949;48.152;11.528;2022-07-12T10:58:53;24.20;41.20
3868;DHT22;1949;48.152;11.528;2022-07-12T11:01:24;24.20;41.00
3868;DHT22;1949;48.152;11.528;2022-07-12T11:04:10;24.20;41.00
3868;DHT22;1949;48.152;11.528;2022-07-12T11:06:41;24.30;41.10
3868;DHT22;1949;48.152;11.528;2022-07-12T11:09:12;24.30;40.80
3868;DHT22;1949;48.152;11.528;2022-07-12T11:11:49;24.30;41.10
3868;DHT22;1949;48.152;11.528;2022-07-12T11:17:46;24.40;41.60
3868;DHT22;1949;48.152;11.528;2022-07-12T11:20:13;24.50;41.50
3868;DHT22;1949;48.152;11.528;2022-07-12T11:22:41;24.50;41.10
3868;DHT22;1949;48.152;11.528;2022-07-12T11:25:11;24.50;41.30
3868;DHT22;1949;48.152;11.528;2022-07-12T11:27:38;24.50;41.00
3868;DHT22;1949;48.152;11.528;2022-07-12T11:30:05;24.50;40.60
3868;DHT22;1949;48.152;11.528;2022-07-12T11:32:42;24.50;40.50
3868;DHT22;1949;48.152;11.528;2022-07-12T11:35:22;24.50;40.50
3868;DHT22;1949;48.152;11.528;2022-07-12T11:37:56;24.60;40.40
3868;DHT22;1949;48.152;11.528;2022-07-12T11:40:28;24.60;40.30
3868;DHT22;1949;48.152;11.528;2022-07-12T11:42:59;24.60;40.10
3868;DHT22;1949;48.152;11.528;2022-07-12T11:45:37;24.60;40.10
3868;DHT22;1949;48.152;11.528;2022-07-12T11:48:03;24.60;40.10
3868;DHT22;1949;48.152;11.528;2022-07-12T11:50:30;24.60;40.10
3868;DHT22;1949;48.152;11.528;2022-07-12T11:52:56;24.60;40.10
3868;DHT22;1949;48.152;11.528;2022-07-12T11:55:22;24.70;40.00
3868;DHT22;1949;48.152;11.528;2022-07-12T11:57:48;24.60;39.80
3868;DHT22;1949;48.152;11.528;2022-07-12T12:00:22;24.60;39.60
3868;DHT22;1949;48.152;11.528;2022-07-12T12:02:52;24.70;39.80
3868;DHT22;1949;48.152;11.528;2022-07-12T12:05:20;24.80;39.90
3868;DHT22;1949;48.152;11.528;2022-07-12T12:07:46;24.80;40.00
3868;DHT22;1949;48.152;11.528;2022-07-12T12:10:15;24.80;39.70
3868;DHT22;1949;48.152;11.528;2022-07-12T12:12:52;24.80;39.70
3868;DHT22;1949;48.152;11.528;2022-07-12T12:15:24;24.80;39.80
3868;DHT22;1949;48.152;11.528;2022-07-12T12:20:33;25.00;39.70
3868;DHT22;1949;48.152;11.528;2022-07-12T12:23:00;25.00;39.50
3868;DHT22;1949;48.152;11.528;2022-07-12T12:25:34;25.00;39.70
3868;DHT22;1949;48.152;11.528;2022-07-12T12:28:02;25.10;39.30
3868;DHT22;1949;48.152;11.528;2022-07-12T12:30:33;25.20;39.20
3868;DHT22;1949;48.152;11.528;2022-07-12T12:33:01;25.20;39.80
3868;DHT22;1949;48.152;11.528;2022-07-12T12:38:02;25.30;40.00
3868;DHT22;1949;48.152;11.528;2022-07-12T12:40:31;25.40;39.80
3868;DHT22;1949;48.152;11.528;2022-07-12T12:43:12;25.40;39.10
3868;DHT22;1949;48.152;11.528;2022-07-12T12:45:56;25.50;39.20
3868;DHT22;1949;48.152;11.528;2022-07-12T12:48:27;25.60;38.90
3868;DHT22;1949;48.152;11.528;2022-07-12T12:51:07;25.60;38.70
3868;DHT22;1949;48.152;11.528;2022-07-12T12:53:34;25.70;38.50
3868;DHT22;1949;48.152;11.528;2022-07-12T12:56:13;25.70;38.70
3868;DHT22;1949;48.152;11.528;2022-07-12T12:58:41;25.80;38.50
3868;DHT22;1949;48.152;11.528;2022-07-12T13:01:07;25.80;38.40
3868;DHT22;1949;48.152;11.528;2022-07-12T13:03:36;25.90;38.40
3868;DHT22;1949;48.152;11.528;2022-07-12T13:06:03;25.90;38.40
3868;DHT22;1949;48.152;11.528;2022-07-12T13:08:48;25.90;38.40
3868;DHT22;1949;48.152;11.528;2022-07-12T13:11:34;26.00;38.40
3868;DHT22;1949;48.152;11.528;2022-07-12T13:14:01;26.10;38.30
3868;DHT22;1949;48.152;11.528;2022-07-12T13:16:41;26.10;37.80
3868;DHT22;1949;48.152;11.528;2022-07-12T13:19:11;26.20;37.70
3868;DHT22;1949;48.152;11.528;2022-07-12T13:21:38;26.30;37.30
3868;DHT22;1949;48.152;11.528;2022-07-12T13:24:03;26.30;37.20
3868;DHT22;1949;48.152;11.528;2022-07-12T13:26:30;26.30;37.10
3868;DHT22;1949;48.152;11.528;2022-07-12T13:28:57;26.40;37.70
3868;DHT22;1949;48.152;11.528;2022-07-12T13:31:24;26.50;36.90
3868;DHT22;1949;48.152;11.528;2022-07-12T13:33:55;26.50;36.90
3868;DHT22;1949;48.152;11.528;2022-07-12T13:36:22;26.50;37.00
3868;DHT22;1949;48.152;11.528;2022-07-12T13:38:49;26.60;36.70
3868;DHT22;1949;48.152;11.528;2022-07-12T13:41:16;26.70;36.80
3868;DHT22;1949;48.152;11.528;2022-07-12T13:43:44;26.80;36.90
3868;DHT22;1949;48.152;11.528;2022-07-12T13:46:12;26.90;36.70
3868;DHT22;1949;48.152;11.528;2022-07-12T13:51:51;27.10;36.50
3868;DHT22;1949;48.152;11.528;2022-07-12T13:54:17;27.30;36.50
3868;DHT22;1949;48.152;11.528;2022-07-12T13:56:53;27.30;35.80
3868;DHT22;1949;48.152;11.528;2022-07-12T13:59:19;27.50;36.00
3868;DHT22;1949;48.152;11.528;2022-07-12T14:01:52;27.60;36.00
3868;DHT22;1949;48.152;11.528;2022-07-12T14:04:17;27.70;35.50
3868;DHT22;1949;48.152;11.528;2022-07-12T14:06:43;27.80;35.00
3868;DHT22;1949;48.152;11.528;2022-07-12T14:09:09;27.80;34.90
3868;DHT22;1949;48.152;11.528;2022-07-12T14:11:35;27.90;35.00
3868;DHT22;1949;48.152;11.528;2022-07-12T14:14:00;27.80;34.40
3868;DHT22;1949;48.152;11.528;2022-07-12T14:16:26;27.80;34.20
3868;DHT22;1949;48.152;11.528;2022-07-12T14:18:52;27.80;34.30
3868;DHT22;1949;48.152;11.528;2022-07-12T14:21:18;27.80;34.20
3868;DHT22;1949;48.152;11.528;2022-07-12T14:23:44;27.90;34.40
3868;DHT22;1949;48.152;11.528;2022-07-12T14:26:10;27.80;34.20
3868;DHT22;1949;48.152;11.528;2022-07-12T14:28:36;27.80;34.40
3868;DHT22;1949;48.152;11.528;2022-07-12T14:31:03;27.80;34.20
3868;DHT22;1949;48.152;11.528;2022-07-12T14:33:30;27.90;34.40
3868;DHT22;1949;48.152;11.528;2022-07-12T14:35:56;27.90;34.40
3868;DHT22;1949;48.152;11.528;2022-07-12T14:38:21;28.00;34.50
3868;DHT22;1949;48.152;11.528;2022-07-12T14:40:47;28.10;34.40
3868;DHT22;1949;48.152;11.528;2022-07-12T14:43:14;28.20;34.10
3868;DHT22;1949;48.152;11.528;2022-07-12T14:45:40;28.20;34.10
3868;DHT22;1949;48.152;11.528;2022-07-12T14:48:07;28.30;34.00
3868;DHT22;1949;48.152;11.528;2022-07-12T14:50:33;28.30;33.70
3868;DHT22;1949;48.152;11.528;2022-07-12T14:52:59;28.30;33.60
3868;DHT22;1949;48.152;11.528;2022-07-12T14:55:25;28.40;33.60
3868;DHT22;1949;48.152;11.528;2022-07-12T14:57:50;28.40;33.40
3868;DHT22;1949;48.152;11.528;2022-07-12T15:00:16;28.60;33.50
3868;DHT22;1949;48.152;11.528;2022-07-12T15:02:42;28.70;33.40
3868;DHT22;1949;48.152;11.528;2022-07-12T15:05:08;28.80;33.30
3868;DHT22;1949;48.152;11.528;2022-07-12T15:07:34;28.90;33.10
3868;DHT22;1949;48.152;11.528;2022-07-12T15:09:59;29.00;32.90
3868;DHT22;1949;48.152;11.528;2022-07-12T15:12:25;29.10;32.90
3868;DHT22;1949;48.152;11.528;2022-07-12T15:14:51;29.30;32.50
3868;DHT22;1949;48.152;11.528;2022-07-12T15:17:18;29.30;32.50
3868;DHT22;1949;48.152;11.528;2022-07-12T15:19:45;29.40;32.40
3868;DHT22;1949;48.152;11.528;2022-07-12T15:22:11;29.50;32.30
3868;DHT22;1949;48.152;11.528;2022-07-12T15:24:41;29.60;32.20
3868;DHT22;1949;48.152;11.528;2022-07-12T15:27:07;29.70;31.90
3868;DHT22;1949;48.152;11.528;2022-07-12T15:29:38;29.90;31.80
3868;DHT22;1949;48.152;11.528;2022-07-12T15:32:06;29.90;31.60
3868;DHT22;1949;48.152;11.528;2022-07-12T15:34:32;30.00;31.30
3868;DHT22;1949;48.152;11.528;2022-07-12T15:36:57;30.10;31.30
3868;DHT22;1949;48.152;11.528;2022-07-12T15:39:23;30.10;31.30
3868;DHT22;1949;48.152;11.528;2022-07-12T15:41:49;30.00;30.90
3868;DHT22;1949;48.152;11.528;2022-07-12T15:44:17;29.90;30.90
3868;DHT22;1949;48.152;11.528;2022-07-12T15:46:44;29.70;30.90
3868;DHT22;1949;48.152;11.528;2022-07-12T15:49:10;29.60;31.10
3868;DHT22;1949;48.152;11.528;2022-07-12T15:51:37;29.50;31.40
3868;DHT22;1949;48.152;11.528;2022-07-12T15:54:22;29.40;31.30
3868;DHT22;1949;48.152;11.528;2022-07-12T15:56:49;29.30;31.70
3868;DHT22;1949;48.152;11.528;2022-07-12T15:59:15;29.40;31.80
3868;DHT22;1949;48.152;11.528;2022-07-12T16:01:41;29.40;31.50
3868;DHT22;1949;48.152;11.528;2022-07-12T16:04:08;29.50;31.60
3868;DHT22;1949;48.152;11.528;2022-07-12T16:06:35;29.50;31.20
3868;DHT22;1949;48.152;11.528;2022-07-12T16:09:05;29.50;31.00
3868;DHT22;1949;48.152;11.528;2022-07-12T16:11:31;29.60;31.00
3868;DHT22;1949;48.152;11.528;2022-07-12T16:13:58;29.60;30.70
3868;DHT22;1949;48.152;11.528;2022-07-12T16:16:24;29.60;30.50
3868;DHT22;1949;48.152;11.528;2022-07-12T16:18:50;29.60;30.40